PWSweather.com
Personal Weather Stations
Station Observations

YeovilGB

Lat: 50.949, Lon: -2.627

Elevation: 70

Station Type: Vantage Pro

http://www.yeovil-weather.me.uk/

High Low Average
Temperature 46.9°F8.3°C 35.2°F1.8°C 39.5°F4.2°C
Dew Point 44.6°F7.0°C 33.9°F1.1°C 37.8°F3.2°C
Winds 18.4 mph 29.6 kmh Calm Calm 3.0 mph SSE4.8 kmh SSE
Wind Gusts 33.4 mph53.8 kmh -- 7.0 mph11.3 kmh
Humidity 97% 85% 94%
Pressure 29.54 in1000.3 mb 28.79 in974.9 mb -
Precipitation 0.69 in17.5 mm - -
Hour Temp Dew Point Humidity Winds Wind Gusts Pressure Precip Precip Rate Daily Precip Total
12:00 AM 37.5°F3.1°C 34.3°F1.3°C 88% 2.3 mph ESE3.7 kmh ESE 6.9 mph11.1 kmh 29.54 in1000.3 mb - 0.01 in0.3 mm 0.01 in0.3 mm
12:10 AM 37.8°F3.2°C 34.8°F1.6°C 89% 1.2 mph SE1.9 kmh SE 4.6 mph7.4 kmh 29.53 in1000.0 mb - 0.00 in0.0 mm 0.01 in0.3 mm
12:20 AM 38.0°F3.3°C 35.0°F1.7°C 89% 2.3 mph ESE3.7 kmh ESE 6.9 mph11.1 kmh 29.52 in999.7 mb - 0.00 in0.0 mm 0.01 in0.3 mm
12:30 AM 38.0°F3.3°C 35.0°F1.7°C 89% 3.5 mph SE5.6 kmh SE 8.1 mph13.0 kmh 29.50 in999.0 mb - 0.00 in0.0 mm 0.01 in0.3 mm
12:40 AM 38.0°F3.3°C 35.3°F1.8°C 90% 2.3 mph ESE3.7 kmh ESE 6.9 mph11.1 kmh 29.48 in998.3 mb - 0.00 in0.0 mm 0.01 in0.3 mm
12:50 AM 38.0°F3.3°C 35.6°F2.0°C 91% 3.5 mph ESE5.6 kmh ESE 9.2 mph14.8 kmh 29.46 in997.6 mb - 0.00 in0.0 mm 0.01 in0.3 mm
01:00 AM 38.0°F3.3°C 35.9°F2.2°C 92% 4.6 mph SE7.4 kmh SE 9.2 mph14.8 kmh 29.45 in997.3 mb - 0.00 in0.0 mm 0.01 in0.3 mm
01:10 AM 38.0°F3.3°C 35.9°F2.2°C 92% 1.2 mph ENE1.9 kmh ENE 4.6 mph7.4 kmh 29.42 in996.3 mb - 0.01 in0.3 mm 0.01 in0.3 mm
01:20 AM 38.2°F3.4°C 36.3°F2.4°C 93% Calm Calm 3.5 mph5.6 kmh 29.41 in995.9 mb - 0.00 in0.0 mm 0.01 in0.3 mm
01:30 AM 38.4°F3.6°C 36.8°F2.7°C 94% Calm Calm 1.2 mph1.9 kmh 29.39 in995.3 mb - 0.00 in0.0 mm 0.01 in0.3 mm
01:40 AM 38.6°F3.7°C 37.0°F2.8°C 94% 2.3 mph E3.7 kmh E 3.5 mph5.6 kmh 29.37 in994.6 mb - 0.01 in0.3 mm 0.02 in0.5 mm
01:50 AM 38.7°F3.7°C 37.1°F2.8°C 94% 2.3 mph E3.7 kmh E 10.4 mph16.7 kmh 29.35 in993.9 mb - 0.00 in0.0 mm 0.02 in0.5 mm
02:00 AM 38.7°F3.7°C 37.1°F2.8°C 94% 2.3 mph E3.7 kmh E 4.6 mph7.4 kmh 29.34 in993.6 mb - 0.00 in0.0 mm 0.02 in0.5 mm
02:10 AM 38.8°F3.8°C 37.2°F2.9°C 94% 1.2 mph ENE1.9 kmh ENE 5.8 mph9.3 kmh 29.32 in992.9 mb - 0.01 in0.3 mm 0.02 in0.5 mm
02:20 AM 38.8°F3.8°C 37.2°F2.9°C 94% Calm Calm 3.5 mph5.6 kmh 29.31 in992.6 mb - 0.01 in0.3 mm 0.03 in0.8 mm
02:30 AM 38.9°F3.8°C 37.6°F3.1°C 95% 2.3 mph E3.7 kmh E 6.9 mph11.1 kmh 29.29 in991.9 mb - 0.00 in0.0 mm 0.03 in0.8 mm
02:40 AM 39.1°F3.9°C 37.8°F3.2°C 95% Calm Calm 4.6 mph7.4 kmh 29.27 in991.2 mb - 0.00 in0.0 mm 0.03 in0.8 mm
02:50 AM 39.4°F4.1°C 38.0°F3.3°C 95% Calm Calm 6.9 mph11.1 kmh 29.25 in990.5 mb - 0.01 in0.3 mm 0.04 in1.0 mm
03:00 AM 39.7°F4.3°C 38.7°F3.7°C 96% 1.2 mph ESE1.9 kmh ESE 2.3 mph3.7 kmh 29.24 in990.2 mb - 0.01 in0.3 mm 0.05 in1.3 mm
03:10 AM 40.2°F4.6°C 39.2°F4.0°C 96% 1.2 mph E1.9 kmh E 4.6 mph7.4 kmh 29.22 in989.5 mb - 0.02 in0.5 mm 0.06 in1.5 mm
03:20 AM 40.7°F4.8°C 39.7°F4.3°C 96% 2.3 mph ESE3.7 kmh ESE 5.8 mph9.3 kmh 29.19 in988.5 mb - 0.02 in0.5 mm 0.08 in2.0 mm
03:30 AM 41.5°F5.3°C 40.4°F4.7°C 96% 3.5 mph ESE5.6 kmh ESE 10.4 mph16.7 kmh 29.16 in987.5 mb - 0.02 in0.5 mm 0.09 in2.3 mm
03:40 AM 42.0°F5.6°C 40.9°F4.9°C 96% 4.6 mph ESE7.4 kmh ESE 9.2 mph14.8 kmh 29.15 in987.1 mb - 0.00 in0.0 mm 0.09 in2.3 mm
03:50 AM 42.2°F5.7°C 41.1°F5.1°C 96% 5.8 mph SE9.3 kmh SE 9.2 mph14.8 kmh 29.12 in986.1 mb - 0.00 in0.0 mm 0.09 in2.3 mm
04:00 AM 42.4°F5.8°C 41.3°F5.2°C 96% 2.3 mph SE3.7 kmh SE 10.4 mph16.7 kmh 29.10 in985.4 mb - 0.01 in0.3 mm 0.10 in2.5 mm
04:10 AM 42.5°F5.8°C 41.4°F5.2°C 96% 3.5 mph SE5.6 kmh SE 6.9 mph11.1 kmh 29.08 in984.8 mb - 0.01 in0.3 mm 0.11 in2.8 mm
04:20 AM 42.7°F5.9°C 41.6°F5.3°C 96% 2.3 mph SE3.7 kmh SE 6.9 mph11.1 kmh 29.08 in984.8 mb - 0.01 in0.3 mm 0.12 in3.0 mm
04:30 AM 42.7°F5.9°C 41.6°F5.3°C 96% 1.2 mph SE1.9 kmh SE 5.8 mph9.3 kmh 29.07 in984.4 mb - 0.01 in0.3 mm 0.13 in3.3 mm
04:40 AM 42.8°F6.0°C 41.7°F5.4°C 96% 3.5 mph SE5.6 kmh SE 8.1 mph13.0 kmh 29.04 in983.4 mb - 0.01 in0.3 mm 0.13 in3.3 mm
04:50 AM 42.8°F6.0°C 41.7°F5.4°C 96% 1.2 mph E1.9 kmh E 10.4 mph16.7 kmh 29.02 in982.7 mb - 0.01 in0.3 mm 0.14 in3.6 mm
05:00 AM 42.7°F5.9°C 41.6°F5.3°C 96% 5.8 mph ESE9.3 kmh ESE 13.8 mph22.2 kmh 29.00 in982.1 mb - 0.00 in0.0 mm 0.14 in3.6 mm
05:10 AM 42.6°F5.9°C 41.6°F5.3°C 96% 4.6 mph ESE7.4 kmh ESE 9.2 mph14.8 kmh 28.98 in981.4 mb - 0.00 in0.0 mm 0.14 in3.6 mm
05:20 AM 42.7°F5.9°C 41.6°F5.3°C 96% 4.6 mph SE7.4 kmh SE 11.5 mph18.5 kmh 28.96 in980.7 mb - 0.01 in0.3 mm 0.15 in3.8 mm
05:30 AM 42.7°F5.9°C 41.6°F5.3°C 96% 4.6 mph ESE7.4 kmh ESE 11.5 mph18.5 kmh 28.93 in979.7 mb - 0.02 in0.5 mm 0.17 in4.3 mm
05:40 AM 42.5°F5.8°C 41.5°F5.3°C 96% 2.3 mph E3.7 kmh E 9.2 mph14.8 kmh 28.90 in978.7 mb - 0.01 in0.3 mm 0.18 in4.6 mm
05:50 AM 42.4°F5.8°C 41.3°F5.2°C 96% 1.2 mph SSE1.9 kmh SSE 4.6 mph7.4 kmh 28.89 in978.3 mb - 0.01 in0.3 mm 0.19 in4.8 mm
06:00 AM 42.4°F5.8°C 41.3°F5.2°C 96% 4.6 mph SE7.4 kmh SE 8.1 mph13.0 kmh 28.89 in978.3 mb - 0.00 in0.0 mm 0.19 in4.8 mm
06:10 AM 42.4°F5.8°C 41.3°F5.2°C 96% 5.8 mph SE9.3 kmh SE 9.2 mph14.8 kmh 28.88 in978.0 mb - 0.00 in0.0 mm 0.19 in4.8 mm
06:20 AM 42.5°F5.8°C 41.4°F5.2°C 96% 2.3 mph SE3.7 kmh SE 8.1 mph13.0 kmh 28.87 in977.7 mb - 0.01 in0.3 mm 0.20 in5.1 mm
06:30 AM 42.4°F5.8°C 41.4°F5.2°C 96% Calm Calm -- 28.86 in977.3 mb - 0.01 in0.3 mm 0.21 in5.3 mm
06:40 AM 42.4°F5.8°C 41.4°F5.2°C 96% Calm Calm -- 28.86 in977.3 mb - 0.02 in0.5 mm 0.22 in5.6 mm
06:50 AM 42.5°F5.8°C 41.4°F5.2°C 96% Calm Calm -- 28.85 in977.0 mb - 0.02 in0.5 mm 0.24 in6.1 mm
07:00 AM 42.5°F5.8°C 41.4°F5.2°C 96% Calm Calm -- 28.85 in977.0 mb - 0.02 in0.5 mm 0.26 in6.6 mm
07:10 AM 44.0°F6.7°C 43.2°F6.2°C 97% 5.8 mph SW9.3 kmh SW 20.7 mph33.3 kmh 28.84 in976.6 mb - 0.01 in0.3 mm 0.26 in6.6 mm
07:20 AM 45.4°F7.4°C 44.6°F7.0°C 97% 11.5 mph WSW18.5 kmh WSW 19.6 mph31.5 kmh 28.83 in976.3 mb - 0.00 in0.0 mm 0.26 in6.6 mm
07:30 AM 45.5°F7.5°C 44.4°F6.9°C 96% 6.9 mph SW11.1 kmh SW 16.1 mph25.9 kmh 28.83 in976.3 mb - 0.00 in0.0 mm 0.26 in6.6 mm
07:40 AM 45.9°F7.7°C 44.0°F6.7°C 93% 12.7 mph WSW20.4 kmh WSW 20.7 mph33.3 kmh 28.83 in976.3 mb - 0.00 in0.0 mm 0.26 in6.6 mm
07:50 AM 46.3°F7.9°C 43.5°F6.4°C 90% 18.4 mph SW29.6 kmh SW 27.6 mph44.4 kmh 28.83 in976.3 mb - 0.00 in0.0 mm 0.26 in6.6 mm
08:00 AM 46.4°F8.0°C 43.3°F6.3°C 89% 9.2 mph SW14.8 kmh SW 16.1 mph25.9 kmh 28.82 in976.0 mb - 0.00 in0.0 mm 0.26 in6.6 mm
08:10 AM 46.4°F8.0°C 43.6°F6.4°C 90% 9.2 mph SW14.8 kmh SW 15.0 mph24.1 kmh 28.82 in976.0 mb - 0.00 in0.0 mm 0.26 in6.6 mm
08:20 AM 46.4°F8.0°C 43.4°F6.3°C 89% 11.5 mph SW18.5 kmh SW 19.6 mph31.5 kmh 28.81 in975.6 mb - 0.00 in0.0 mm 0.26 in6.6 mm
08:30 AM 46.4°F8.0°C 43.3°F6.3°C 89% 15.0 mph SW24.1 kmh SW 23.0 mph37.0 kmh 28.81 in975.6 mb - 0.00 in0.0 mm 0.26 in6.6 mm
08:40 AM 46.0°F7.8°C 43.2°F6.2°C 90% 12.7 mph SW20.4 kmh SW 23.0 mph37.0 kmh 28.81 in975.6 mb - 0.03 in0.8 mm 0.29 in7.4 mm
08:50 AM 45.4°F7.4°C 42.6°F5.9°C 90% 9.2 mph SW14.8 kmh SW 19.6 mph31.5 kmh 28.81 in975.6 mb - 0.02 in0.5 mm 0.30 in7.6 mm
09:00 AM 45.2°F7.3°C 42.7°F5.9°C 91% 10.4 mph SW16.7 kmh SW 13.8 mph22.2 kmh 28.80 in975.3 mb - 0.01 in0.3 mm 0.31 in7.9 mm
09:10 AM 45.2°F7.3°C 42.7°F5.9°C 91% 11.5 mph SW18.5 kmh SW 19.6 mph31.5 kmh 28.79 in974.9 mb - 0.01 in0.3 mm 0.32 in8.1 mm
09:20 AM 45.4°F7.4°C 42.7°F5.9°C 90% 12.7 mph SW20.4 kmh SW 33.4 mph53.8 kmh 28.80 in975.3 mb - 0.00 in0.0 mm 0.32 in8.1 mm
09:30 AM 45.6°F7.6°C 42.5°F5.8°C 89% 11.5 mph SW18.5 kmh SW 21.9 mph35.2 kmh 28.79 in974.9 mb - 0.00 in0.0 mm 0.32 in8.1 mm
09:40 AM 45.9°F7.7°C 42.2°F5.7°C 87% 16.1 mph SW25.9 kmh SW 23.0 mph37.0 kmh 28.79 in974.9 mb - 0.00 in0.0 mm 0.32 in8.1 mm
09:50 AM 46.1°F7.8°C 42.1°F5.6°C 86% 13.8 mph SW22.2 kmh SW 26.5 mph42.6 kmh 28.79 in974.9 mb - 0.00 in0.0 mm 0.32 in8.1 mm
10:00 AM 46.3°F7.9°C 42.3°F5.7°C 86% 13.8 mph SW22.2 kmh SW 24.2 mph38.9 kmh 28.80 in975.3 mb - 0.00 in0.0 mm 0.32 in8.1 mm
10:10 AM 46.6°F8.1°C 42.3°F5.7°C 85% 17.3 mph WSW27.8 kmh WSW 32.2 mph51.8 kmh 28.80 in975.3 mb - 0.00 in0.0 mm 0.32 in8.1 mm
10:20 AM 46.8°F8.2°C 42.5°F5.8°C 85% 9.2 mph SW14.8 kmh SW 29.9 mph48.1 kmh 28.81 in975.6 mb - 0.00 in0.0 mm 0.32 in8.1 mm
10:30 AM 46.8°F8.2°C 42.8°F6.0°C 86% 11.5 mph SW18.5 kmh SW 19.6 mph31.5 kmh 28.81 in975.6 mb - 0.00 in0.0 mm 0.32 in8.1 mm
10:40 AM 46.9°F8.3°C 42.9°F6.1°C 86% 12.7 mph SW20.4 kmh SW 23.0 mph37.0 kmh 28.82 in976.0 mb - 0.00 in0.0 mm 0.32 in8.1 mm
10:50 AM 46.9°F8.3°C 43.2°F6.2°C 87% 13.8 mph WSW22.2 kmh WSW 19.6 mph31.5 kmh 28.82 in976.0 mb - 0.00 in0.0 mm 0.32 in8.1 mm
11:00 AM 46.7°F8.2°C 43.3°F6.3°C 88% 6.9 mph SW11.1 kmh SW 16.1 mph25.9 kmh 28.83 in976.3 mb - 0.00 in0.0 mm 0.32 in8.1 mm
11:10 AM 46.0°F7.8°C 42.4°F5.8°C 87% 6.9 mph WNW11.1 kmh WNW 13.8 mph22.2 kmh 28.84 in976.6 mb - 0.00 in0.0 mm 0.32 in8.1 mm
11:20 AM 44.1°F6.7°C 41.1°F5.1°C 89% 4.6 mph NW7.4 kmh NW 8.1 mph13.0 kmh 28.84 in976.6 mb - 0.02 in0.5 mm 0.33 in8.4 mm
11:30 AM 42.6°F5.9°C 39.9°F4.4°C 90% 4.6 mph NW7.4 kmh NW 10.4 mph16.7 kmh 28.85 in977.0 mb - 0.03 in0.8 mm 0.36 in9.1 mm
11:40 AM 41.2°F5.1°C 38.8°F3.8°C 91% 4.6 mph NW7.4 kmh NW 10.4 mph16.7 kmh 28.86 in977.3 mb - 0.03 in0.8 mm 0.39 in9.9 mm
11:50 AM 40.4°F4.7°C 38.3°F3.5°C 92% 1.2 mph NNW1.9 kmh NNW 3.5 mph5.6 kmh 28.86 in977.3 mb - 0.02 in0.5 mm 0.40 in10.2 mm
12:00 PM 39.8°F4.3°C 37.7°F3.2°C 92% 6.9 mph NW11.1 kmh NW 13.8 mph22.2 kmh 28.86 in977.3 mb - 0.02 in0.5 mm 0.42 in10.7 mm
12:10 PM 39.3°F4.1°C 37.4°F3.0°C 93% 4.6 mph NW7.4 kmh NW 8.1 mph13.0 kmh 28.87 in977.7 mb - 0.02 in0.5 mm 0.43 in10.9 mm
12:20 PM 38.9°F3.8°C 37.0°F2.8°C 93% 4.6 mph NW7.4 kmh NW 6.9 mph11.1 kmh 28.88 in978.0 mb - 0.02 in0.5 mm 0.44 in11.2 mm
12:30 PM 38.5°F3.6°C 36.7°F2.6°C 93% 4.6 mph NW7.4 kmh NW 8.1 mph13.0 kmh 28.88 in978.0 mb - 0.02 in0.5 mm 0.46 in11.7 mm
12:40 PM 38.1°F3.4°C 36.3°F2.4°C 93% 1.2 mph NNW1.9 kmh NNW 5.8 mph9.3 kmh 28.88 in978.0 mb - 0.01 in0.3 mm 0.47 in11.9 mm
12:50 PM 37.9°F3.3°C 36.3°F2.4°C 94% 1.2 mph NW1.9 kmh NW 4.6 mph7.4 kmh 28.88 in978.0 mb - 0.00 in0.0 mm 0.47 in11.9 mm
01:00 PM 37.8°F3.2°C 36.2°F2.3°C 94% Calm Calm 8.1 mph13.0 kmh 28.89 in978.3 mb - 0.01 in0.3 mm 0.47 in11.9 mm
01:10 PM 37.7°F3.2°C 36.1°F2.3°C 94% Calm Calm 2.3 mph3.7 kmh 28.89 in978.3 mb - 0.00 in0.0 mm 0.47 in11.9 mm
01:20 PM 37.7°F3.2°C 36.1°F2.3°C 94% 1.2 mph NNW1.9 kmh NNW 2.3 mph3.7 kmh 28.89 in978.3 mb - 0.00 in0.0 mm 0.47 in11.9 mm
01:30 PM 37.6°F3.1°C 36.0°F2.2°C 94% 1.2 mph NW1.9 kmh NW 4.6 mph7.4 kmh 28.89 in978.3 mb - 0.01 in0.3 mm 0.48 in12.2 mm
01:40 PM 37.3°F2.9°C 35.8°F2.1°C 94% 1.2 mph NW1.9 kmh NW -- 28.89 in978.3 mb - 0.01 in0.3 mm 0.49 in12.4 mm
01:50 PM 37.1°F2.8°C 35.5°F1.9°C 94% 1.2 mph NNW1.9 kmh NNW 2.3 mph3.7 kmh 28.89 in978.3 mb - 0.01 in0.3 mm 0.50 in12.7 mm
02:00 PM 36.9°F2.7°C 35.3°F1.8°C 94% 1.2 mph N1.9 kmh N 1.2 mph1.9 kmh 28.89 in978.3 mb - 0.01 in0.3 mm 0.50 in12.7 mm
02:10 PM 36.7°F2.6°C 35.1°F1.7°C 94% Calm Calm 2.3 mph3.7 kmh 28.88 in978.0 mb - 0.00 in0.0 mm 0.50 in12.7 mm
02:20 PM 36.6°F2.6°C 35.1°F1.7°C 94% Calm Calm -- 28.88 in978.0 mb - 0.01 in0.3 mm 0.50 in12.7 mm
02:30 PM 36.5°F2.5°C 34.9°F1.6°C 94% Calm Calm -- 28.88 in978.0 mb - 0.01 in0.3 mm 0.51 in13.0 mm
02:40 PM 36.5°F2.5°C 34.9°F1.6°C 94% Calm Calm -- 28.88 in978.0 mb - 0.00 in0.0 mm 0.51 in13.0 mm
02:50 PM 36.5°F2.5°C 35.2°F1.8°C 95% Calm Calm -- 28.89 in978.3 mb - 0.00 in0.0 mm 0.51 in13.0 mm
03:00 PM 36.6°F2.6°C 35.3°F1.8°C 95% Calm Calm -- 28.89 in978.3 mb - 0.01 in0.3 mm 0.52 in13.2 mm
03:10 PM 36.6°F2.6°C 35.3°F1.8°C 95% Calm Calm -- 28.90 in978.7 mb - 0.00 in0.0 mm 0.52 in13.2 mm
03:20 PM 36.7°F2.6°C 35.4°F1.9°C 95% Calm Calm -- 28.90 in978.7 mb - 0.01 in0.3 mm 0.53 in13.5 mm
03:30 PM 36.8°F2.7°C 35.5°F1.9°C 95% Calm Calm -- 28.90 in978.7 mb - 0.01 in0.3 mm 0.54 in13.7 mm
03:40 PM 36.8°F2.7°C 35.5°F1.9°C 95% Calm Calm -- 28.90 in978.7 mb - 0.00 in0.0 mm 0.54 in13.7 mm
03:50 PM 36.8°F2.7°C 35.5°F1.9°C 95% Calm Calm -- 28.90 in978.7 mb - 0.00 in0.0 mm 0.54 in13.7 mm
04:00 PM 36.8°F2.7°C 35.5°F1.9°C 95% Calm Calm -- 28.90 in978.7 mb - 0.00 in0.0 mm 0.54 in13.7 mm
04:10 PM 36.8°F2.7°C 35.5°F1.9°C 95% Calm Calm -- 28.90 in978.7 mb - 0.02 in0.5 mm 0.55 in14.0 mm
04:20 PM 36.6°F2.6°C 35.3°F1.8°C 95% Calm Calm -- 28.90 in978.7 mb - 0.02 in0.5 mm 0.58 in14.7 mm
04:30 PM 36.5°F2.5°C 35.2°F1.8°C 95% Calm Calm -- 28.90 in978.7 mb - 0.02 in0.5 mm 0.59 in15.0 mm
04:40 PM 36.4°F2.4°C 35.1°F1.7°C 95% Calm Calm -- 28.90 in978.7 mb - 0.04 in1.0 mm 0.62 in15.7 mm
04:50 PM 36.4°F2.4°C 35.1°F1.7°C 95% Calm Calm -- 28.90 in978.7 mb - 0.03 in0.8 mm 0.65 in16.5 mm
05:00 PM 36.4°F2.4°C 35.1°F1.7°C 95% Calm Calm -- 28.90 in978.7 mb - 0.02 in0.5 mm 0.66 in16.8 mm
05:10 PM 36.5°F2.5°C 35.2°F1.8°C 95% Calm Calm -- 28.90 in978.7 mb - 0.02 in0.5 mm 0.68 in17.3 mm
05:20 PM 36.6°F2.6°C 35.3°F1.8°C 95% Calm Calm -- 28.90 in978.7 mb - 0.01 in0.3 mm 0.69 in17.5 mm
05:30 PM 36.7°F2.6°C 35.4°F1.9°C 95% Calm Calm -- 28.89 in978.3 mb - 0.01 in0.3 mm 0.69 in17.5 mm
05:40 PM 36.7°F2.6°C 35.4°F1.9°C 95% Calm Calm -- 28.89 in978.3 mb - 0.00 in0.0 mm 0.69 in17.5 mm
05:50 PM 36.7°F2.6°C 35.4°F1.9°C 95% Calm Calm -- 28.89 in978.3 mb - 0.00 in0.0 mm 0.69 in17.5 mm
06:00 PM 36.5°F2.5°C 35.2°F1.8°C 95% Calm Calm -- 28.90 in978.7 mb - 0.00 in0.0 mm 0.69 in17.5 mm
06:10 PM 36.6°F2.6°C 35.6°F2.0°C 96% Calm Calm -- 28.90 in978.7 mb - 0.00 in0.0 mm 0.69 in17.5 mm
06:20 PM 36.6°F2.6°C 35.6°F2.0°C 96% Calm Calm -- 28.90 in978.7 mb - 0.00 in0.0 mm 0.69 in17.5 mm
06:30 PM 36.5°F2.5°C 35.2°F1.8°C 95% Calm Calm -- 28.91 in979.0 mb - 0.00 in0.0 mm 0.69 in17.5 mm
06:40 PM 36.5°F2.5°C 35.5°F1.9°C 96% Calm Calm -- 28.91 in979.0 mb - 0.00 in0.0 mm 0.69 in17.5 mm
06:50 PM 36.5°F2.5°C 35.5°F1.9°C 96% Calm Calm -- 28.91 in979.0 mb - 0.01 in0.3 mm 0.69 in17.5 mm
07:00 PM 36.4°F2.4°C 35.1°F1.7°C 95% 1.2 mph E1.9 kmh E 3.5 mph5.6 kmh 28.91 in979.0 mb - 0.00 in0.0 mm 0.69 in17.5 mm
07:10 PM 36.1°F2.3°C 34.8°F1.6°C 95% 1.2 mph E1.9 kmh E 3.5 mph5.6 kmh 28.91 in979.0 mb - 0.00 in0.0 mm 0.69 in17.5 mm
07:20 PM 35.9°F2.2°C 34.6°F1.4°C 95% Calm Calm -- 28.91 in979.0 mb - 0.00 in0.0 mm 0.69 in17.5 mm
07:30 PM 35.7°F2.1°C 34.4°F1.3°C 95% Calm Calm 1.2 mph1.9 kmh 28.91 in979.0 mb - 0.00 in0.0 mm 0.69 in17.5 mm
07:40 PM 35.7°F2.1°C 34.4°F1.3°C 95% Calm Calm 3.5 mph5.6 kmh 28.91 in979.0 mb - 0.00 in0.0 mm 0.69 in17.5 mm
07:50 PM 35.5°F1.9°C 34.5°F1.4°C 96% Calm Calm 2.3 mph3.7 kmh 28.91 in979.0 mb - 0.00 in0.0 mm 0.69 in17.5 mm
08:00 PM 35.4°F1.9°C 34.4°F1.3°C 96% Calm Calm -- 28.91 in979.0 mb - 0.00 in0.0 mm 0.69 in17.5 mm
08:10 PM 35.4°F1.9°C 34.4°F1.3°C 96% Calm Calm 1.2 mph1.9 kmh 28.90 in978.7 mb - 0.00 in0.0 mm 0.69 in17.5 mm
08:20 PM 35.5°F1.9°C 34.5°F1.4°C 96% Calm Calm 2.3 mph3.7 kmh 28.91 in979.0 mb - 0.00 in0.0 mm 0.69 in17.5 mm
08:30 PM 35.7°F2.1°C 34.7°F1.5°C 96% Calm Calm -- 28.91 in979.0 mb - 0.00 in0.0 mm 0.69 in17.5 mm
08:40 PM 35.8°F2.1°C 34.8°F1.6°C 96% 1.2 mph NE1.9 kmh NE 2.3 mph3.7 kmh 28.90 in978.7 mb - 0.00 in0.0 mm 0.69 in17.5 mm
08:50 PM 35.9°F2.2°C 34.9°F1.6°C 96% 2.3 mph E3.7 kmh E 4.6 mph7.4 kmh 28.91 in979.0 mb - 0.00 in0.0 mm 0.69 in17.5 mm
09:00 PM 36.0°F2.2°C 35.0°F1.7°C 96% Calm Calm 2.3 mph3.7 kmh 28.90 in978.7 mb - 0.00 in0.0 mm 0.69 in17.5 mm
09:10 PM 36.0°F2.2°C 35.0°F1.7°C 96% 3.5 mph ESE5.6 kmh ESE 8.1 mph13.0 kmh 28.91 in979.0 mb - 0.00 in0.0 mm 0.69 in17.5 mm
09:20 PM 35.9°F2.2°C 34.9°F1.6°C 96% 1.2 mph NE1.9 kmh NE 6.9 mph11.1 kmh 28.91 in979.0 mb - 0.00 in0.0 mm 0.69 in17.5 mm
09:30 PM 35.7°F2.1°C 34.7°F1.5°C 96% 1.2 mph ENE1.9 kmh ENE 3.5 mph5.6 kmh 28.91 in979.0 mb - 0.00 in0.0 mm 0.69 in17.5 mm
09:40 PM 35.5°F1.9°C 34.5°F1.4°C 96% Calm Calm 3.5 mph5.6 kmh 28.91 in979.0 mb - 0.00 in0.0 mm 0.69 in17.5 mm
09:50 PM 35.4°F1.9°C 34.4°F1.3°C 96% 1.2 mph E1.9 kmh E 3.5 mph5.6 kmh 28.91 in979.0 mb - 0.00 in0.0 mm 0.69 in17.5 mm
10:00 PM 35.4°F1.9°C 34.4°F1.3°C 96% Calm Calm 2.3 mph3.7 kmh 28.92 in979.3 mb - 0.00 in0.0 mm 0.69 in17.5 mm
10:10 PM 35.4°F1.9°C 34.4°F1.3°C 96% 1.2 mph ENE1.9 kmh ENE 8.1 mph13.0 kmh 28.91 in979.0 mb - 0.00 in0.0 mm 0.69 in17.5 mm
10:20 PM 35.3°F1.8°C 34.3°F1.3°C 96% 2.3 mph ENE3.7 kmh ENE 3.5 mph5.6 kmh 28.89 in978.3 mb - 0.00 in0.0 mm 0.69 in17.5 mm
10:30 PM 35.3°F1.8°C 34.0°F1.1°C 95% Calm Calm 1.2 mph1.9 kmh 28.89 in978.3 mb - 0.00 in0.0 mm 0.69 in17.5 mm
10:40 PM 35.2°F1.8°C 33.9°F1.1°C 95% 2.3 mph ENE3.7 kmh ENE 4.6 mph7.4 kmh 28.90 in978.7 mb - 0.00 in0.0 mm 0.69 in17.5 mm
10:50 PM 35.3°F1.8°C 34.3°F1.3°C 96% Calm Calm 4.6 mph7.4 kmh 28.92 in979.3 mb - 0.00 in0.0 mm 0.69 in17.5 mm
11:00 PM 35.4°F1.9°C 34.3°F1.3°C 96% Calm Calm 3.5 mph5.6 kmh 28.93 in979.7 mb - 0.00 in0.0 mm 0.69 in17.5 mm
11:10 PM 35.4°F1.9°C 34.4°F1.3°C 96% Calm Calm 1.2 mph1.9 kmh 28.93 in979.7 mb - 0.00 in0.0 mm 0.69 in17.5 mm
11:20 PM 35.3°F1.8°C 34.0°F1.1°C 95% 1.2 mph NE1.9 kmh NE 4.6 mph7.4 kmh 28.93 in979.7 mb - 0.00 in0.0 mm 0.69 in17.5 mm
11:30 PM 35.3°F1.8°C 34.0°F1.1°C 95% 1.2 mph NE1.9 kmh NE 3.5 mph5.6 kmh 28.92 in979.3 mb - 0.00 in0.0 mm 0.69 in17.5 mm
11:40 PM 35.3°F1.8°C 34.0°F1.1°C 95% 1.2 mph NNE1.9 kmh NNE 4.6 mph7.4 kmh 28.92 in979.3 mb - 0.00 in0.0 mm 0.69 in17.5 mm
11:50 PM 35.3°F1.8°C 34.0°F1.1°C 95% 1.2 mph NE1.9 kmh NE 3.5 mph5.6 kmh 28.92 in979.3 mb - 0.00 in0.0 mm 0.69 in17.5 mm